Terminal Aerodrome Forecast
Issued by NWS

Home | Current Version | Previous Version | Text Only | Print | Product List | Glossary On
Versions: 1 2 3 4 5 6 7 8 9 10 11 12 13 14 15 16 17 18 19 20 21
000
FTUS43 KDVN 262108 AAB
TAFBRL
TAF AMD
KBRL 262108Z 2621/2718 VRB03KT P6SM SCT030
      TEMPO 2621/2623 BKN030
     FM270800 11005KT 3SM BR BKN025
     FM271100 12005KT 1SM BR SCT006 BKN010
     FM271600 13011KT 4SM BR BKN020=

USA.gov is the U.S. government's official web portal to all federal, state and local government web resources and services.